This is the latest recevied weather packets stored in our database for station/object IU0KRR-10. If no packets are shown the sender has not sent any weather packets the latest 10 day(s).
| Time | Temp. | Humidity | Pressure | Rain* | Wind** | Luminosity | Snow |
|---|---|---|---|---|---|---|---|
| 1777798691 | 15.56° C | 42% | 875.6 hPa | - | - | - | - |
| 1777797791 | 15.56° C | 43% | 875.5 hPa | - | - | - | - |
| 1777796891 | 16.67° C | 36% | 875.5 hPa | - | - | - | - |
| 1777795990 | 17.78° C | 32% | 875.4 hPa | - | - | - | - |
| 1777795090 | 21.11° C | 31% | 875.5 hPa | - | - | - | - |
| 1777794189 | 26.67° C | 21% | 876.7 hPa | - | - | - | - |
| 1777793289 | 26.11° C | 22% | 876.7 hPa | - | - | - | - |
| 1777792389 | 25.56° C | 22% | 876.6 hPa | - | - | - | - |
| 1777791488 | 25° C | 22% | 876.7 hPa | - | - | - | - |
| 1777790588 | 24.44° C | 23% | 876.7 hPa | - | - | - | - |
| 1777789688 | 23.33° C | 23% | 876.5 hPa | - | - | - | - |
| 1777788788 | 22.78° C | 24% | 876.5 hPa | - | - | - | - |
| 1777787888 | 22.78° C | 24% | 876.4 hPa | - | - | - | - |
| 1777786988 | 22.78° C | 23% | 876.2 hPa | - | - | - | - |
| 1777786088 | 22.78° C | 23% | 876.3 hPa | - | - | - | - |
| 1777785188 | 22.22° C | 22% | 876.2 hPa | - | - | - | - |
| 1777784287 | 22.22° C | 22% | 876.2 hPa | - | - | - | - |
| 1777783442 | 22.22° C | 22% | 876.2 hPa | - | - | - | - |
| 1777783387 | 22.22° C | 22% | 876.2 hPa | - | - | - | - |
| 1777782487 | 22.78° C | 21% | 876.2 hPa | - | - | - | - |
| 1777781587 | 22.78° C | 21% | 876.1 hPa | - | - | - | - |
| 1777780687 | 22.78° C | 21% | 876 hPa | - | - | - | - |
| 1777779786 | 22.78° C | 21% | 876 hPa | - | - | - | - |
| 1777778886 | 22.78° C | 21% | 876 hPa | - | - | - | - |
| 1777777985 | 22.78° C | 21% | 876 hPa | - | - | - | - |
* Rain since midnight (hover to see other rain measurements)
** Current wind speed in m/s (hover to see current wind gust speed)